createdAt,value
2023-02-22T00:00:26.226Z,24.80
2023-02-22T00:02:57.298Z,32.60
2023-02-22T00:05:25.920Z,28.17
2023-02-22T00:07:56.337Z,21.57
2023-02-22T00:10:25.460Z,28.27
2023-02-22T00:12:54.708Z,22.80
2023-02-22T00:15:26.101Z,21.97
2023-02-22T00:17:55.636Z,21.93
2023-02-22T00:20:23.917Z,21.33
2023-02-22T00:22:52.756Z,16.57
2023-02-22T00:25:22.511Z,16.73
2023-02-22T00:27:54.051Z,16.33
2023-02-22T00:30:23.530Z,20.37
2023-02-22T00:32:52.582Z,18.13
2023-02-22T00:35:22.845Z,17.70
2023-02-22T00:37:53.010Z,14.13
2023-02-22T00:40:22.491Z,16.03
2023-02-22T00:42:50.664Z,30.30
2023-02-22T00:45:20.708Z,19.93
2023-02-22T00:47:49.799Z,16.57
2023-02-22T00:50:19.139Z,16.63
2023-02-22T00:52:47.785Z,20.23
2023-02-22T00:55:17.211Z,18.77
2023-02-22T00:57:45.775Z,16.40
2023-02-22T01:00:18.967Z,22.60
2023-02-22T01:02:49.334Z,30.77
2023-02-22T01:05:19.082Z,31.77
2023-02-22T01:07:47.440Z,29.13
2023-02-22T01:10:16.140Z,33.47
2023-02-22T01:12:45.069Z,24.07
2023-02-22T01:15:13.642Z,25.80
2023-02-22T01:17:43.899Z,25.17
2023-02-22T01:20:15.240Z,26.97
2023-02-22T01:22:44.821Z,20.97
2023-02-22T01:25:14.528Z,22.33
2023-02-22T01:27:42.613Z,20.47
2023-02-22T01:30:12.281Z,23.27
2023-02-22T01:32:42.174Z,24.13
2023-02-22T01:35:12.293Z,26.00
2023-02-22T01:37:40.634Z,28.83
2023-02-22T01:40:10.654Z,22.60
2023-02-22T01:42:38.511Z,22.63
2023-02-22T01:45:25.416Z,26.80
2023-02-22T01:47:54.129Z,24.77
2023-02-22T01:50:23.302Z,25.93
2023-02-22T01:52:51.831Z,24.30
2023-02-22T01:55:20.547Z,22.20
2023-02-22T01:57:49.472Z,22.53
2023-02-22T02:00:20.373Z,22.77
2023-02-22T02:02:51.705Z,22.00
2023-02-22T02:05:19.879Z,23.00
2023-02-22T02:07:49.740Z,22.27
2023-02-22T02:10:18.327Z,23.87
2023-02-22T02:12:50.848Z,22.67
2023-02-22T02:15:30.045Z,23.43
2023-02-22T02:18:00.755Z,21.40
2023-02-22T02:20:38.978Z,22.80
2023-02-22T02:23:11.967Z,22.40
2023-02-22T02:25:48.029Z,19.77
2023-02-22T02:28:34.555Z,21.40
2023-02-22T02:31:08.292Z,22.27
2023-02-22T02:33:38.565Z,20.77
2023-02-22T02:36:08.472Z,21.97
2023-02-22T02:38:41.488Z,22.00
2023-02-22T02:41:10.970Z,23.03
2023-02-22T02:43:59.429Z,22.07
2023-02-22T02:48:57.475Z,21.12
2023-02-22T02:51:27.338Z,23.63
2023-02-22T02:56:24.084Z,24.45
2023-02-22T02:58:52.989Z,24.17
2023-02-22T03:01:23.092Z,20.63
2023-02-22T03:03:54.080Z,20.07
2023-02-22T03:06:40.324Z,18.40
2023-02-22T03:09:16.756Z,18.37
2023-02-22T03:12:03.267Z,18.73
2023-02-22T03:14:35.508Z,16.60
2023-02-22T03:17:05.066Z,15.30
2023-02-22T03:19:44.336Z,14.83
2023-02-22T03:22:24.974Z,14.00
2023-02-22T03:25:10.090Z,14.40
2023-02-22T03:27:44.366Z,13.00
2023-02-22T03:30:14.608Z,19.57
2023-02-22T03:32:44.606Z,23.67
2023-02-22T03:35:14.665Z,17.97
2023-02-22T03:37:44.859Z,16.57
2023-02-22T03:40:14.453Z,17.57
2023-02-22T03:42:47.648Z,16.73
2023-02-22T03:45:17.555Z,14.97
2023-02-22T03:47:47.595Z,22.67
2023-02-22T03:50:17.291Z,18.80
2023-02-22T03:52:47.343Z,17.70
2023-02-22T03:55:18.344Z,21.03
2023-02-22T03:57:48.575Z,17.93
2023-02-22T04:00:18.891Z,13.63
2023-02-22T04:02:47.604Z,15.00
2023-02-22T04:05:15.763Z,12.77
2023-02-22T04:07:43.832Z,10.77
2023-02-22T04:10:13.228Z,10.13
2023-02-22T04:12:41.903Z,12.50
2023-02-22T04:15:11.029Z,11.03
2023-02-22T04:17:38.994Z,12.40
2023-02-22T04:20:08.047Z,10.23
2023-02-22T04:22:36.562Z,16.00
2023-02-22T04:25:04.624Z,13.67
2023-02-22T04:27:33.004Z,11.30
2023-02-22T04:30:02.310Z,9.40
2023-02-22T04:32:30.888Z,15.67
2023-02-22T04:34:59.417Z,17.20
2023-02-22T04:37:27.352Z,15.67
2023-02-22T04:39:55.938Z,15.77
2023-02-22T04:42:24.554Z,16.37
2023-02-22T04:44:52.680Z,15.87
2023-02-22T04:47:21.466Z,18.03
2023-02-22T04:49:50.159Z,21.53
2023-02-22T04:52:18.068Z,18.50
2023-02-22T04:54:47.223Z,20.90
2023-02-22T04:57:15.825Z,20.40
2023-02-22T04:59:44.516Z,18.97
2023-02-22T05:02:13.184Z,15.63
2023-02-22T05:04:41.401Z,17.17
2023-02-22T05:07:09.433Z,15.17
2023-02-22T05:09:38.062Z,17.27
2023-02-22T05:12:07.102Z,17.63
2023-02-22T05:14:36.093Z,22.73
2023-02-22T05:17:04.991Z,23.30
2023-02-22T05:19:33.526Z,19.83
2023-02-22T05:22:01.638Z,26.10
2023-02-22T05:24:29.711Z,30.13
2023-02-22T05:26:58.306Z,30.73
2023-02-22T05:29:26.673Z,24.50
2023-02-22T05:31:55.206Z,27.17
2023-02-22T05:34:24.672Z,27.23
2023-02-22T05:36:53.353Z,28.33
2023-02-22T05:39:21.333Z,35.93
2023-02-22T05:41:49.393Z,40.77
2023-02-22T05:44:17.361Z,38.27
2023-02-22T05:46:45.471Z,39.23
2023-02-22T05:49:14.228Z,37.80
2023-02-22T05:51:43.076Z,39.87
2023-02-22T05:54:11.501Z,40.00
2023-02-22T05:56:39.321Z,44.67
2023-02-22T05:59:07.763Z,40.40
2023-02-22T06:01:36.287Z,46.90
2023-02-22T06:04:05.376Z,46.40
2023-02-22T06:06:34.172Z,46.57
2023-02-22T06:09:02.115Z,39.03
2023-02-22T06:11:30.672Z,38.43
2023-02-22T06:13:59.438Z,31.23
2023-02-22T06:16:27.888Z,26.40
2023-02-22T06:18:56.727Z,23.27
2023-02-22T06:21:25.415Z,20.43
2023-02-22T06:23:54.146Z,19.10
2023-02-22T06:26:23.606Z,16.27
2023-02-22T06:28:52.083Z,17.97
2023-02-22T06:31:20.821Z,17.93
2023-02-22T06:33:49.777Z,17.27
2023-02-22T06:36:17.614Z,20.03
2023-02-22T06:38:45.640Z,31.83
2023-02-22T06:41:16.412Z,31.07
2023-02-22T06:43:45.700Z,29.63
2023-02-22T06:46:14.020Z,28.37
2023-02-22T06:48:42.698Z,23.97
2023-02-22T06:51:10.651Z,21.50
2023-02-22T06:53:38.725Z,22.77
2023-02-22T06:56:07.124Z,21.50
2023-02-22T06:58:35.924Z,20.93
2023-02-22T07:01:04.239Z,24.77
2023-02-22T07:03:33.147Z,24.20
2023-02-22T07:06:02.929Z,28.90
2023-02-22T07:08:31.641Z,26.27
2023-02-22T07:11:00.208Z,24.00
2023-02-22T07:13:28.764Z,22.40
2023-02-22T07:15:57.465Z,23.47
2023-02-22T07:18:26.695Z,21.73
2023-02-22T07:20:55.340Z,21.23
2023-02-22T07:23:24.822Z,20.87
2023-02-22T07:25:53.584Z,20.40
2023-02-22T07:28:22.240Z,20.80
2023-02-22T07:30:50.153Z,19.40
2023-02-22T07:33:18.762Z,20.87
2023-02-22T07:35:48.349Z,22.23
2023-02-22T07:38:18.268Z,23.13
2023-02-22T07:40:47.109Z,21.40
2023-02-22T07:43:17.278Z,22.20
2023-02-22T07:45:46.278Z,21.27
2023-02-22T07:48:16.914Z,21.30
2023-02-22T07:50:45.790Z,21.43
2023-02-22T07:53:15.637Z,18.90
2023-02-22T07:55:43.789Z,19.50
2023-02-22T07:58:13.788Z,21.63
2023-02-22T08:00:44.320Z,18.33
2023-02-22T08:03:14.784Z,19.03
2023-02-22T08:05:44.999Z,18.07
2023-02-22T08:08:14.610Z,16.90
2023-02-22T08:10:43.281Z,18.00
2023-02-22T08:13:11.555Z,11.57
2023-02-22T08:15:41.096Z,12.60
2023-02-22T08:18:10.772Z,13.93
2023-02-22T08:20:39.974Z,16.37
2023-02-22T08:23:09.442Z,16.50
2023-02-22T08:25:38.382Z,16.67
2023-02-22T08:28:08.416Z,15.93
2023-02-22T08:30:40.084Z,16.10
2023-02-22T08:33:07.844Z,16.47
2023-02-22T08:35:36.183Z,18.30
2023-02-22T08:38:05.731Z,16.57
2023-02-22T08:40:35.810Z,16.27
2023-02-22T08:43:05.431Z,16.27
2023-02-22T08:45:33.909Z,18.93
2023-02-22T08:48:02.752Z,17.90
2023-02-22T08:50:34.538Z,17.37
2023-02-22T08:53:03.676Z,16.87
2023-02-22T08:55:34.177Z,17.73
2023-02-22T08:58:03.583Z,18.30
2023-02-22T09:00:33.756Z,19.43
2023-02-22T09:03:05.245Z,17.47
2023-02-22T09:05:34.884Z,17.90
2023-02-22T09:08:03.721Z,17.30
2023-02-22T09:10:33.751Z,17.53
2023-02-22T09:13:02.805Z,18.60
2023-02-22T09:15:31.894Z,15.83
2023-02-22T09:18:01.684Z,14.77
2023-02-22T09:20:30.505Z,14.57
2023-02-22T09:22:59.991Z,15.90
2023-02-22T09:25:28.938Z,13.00
2023-02-22T09:27:58.421Z,13.60
2023-02-22T09:30:28.764Z,13.13
2023-02-22T09:32:59.116Z,11.67
2023-02-22T09:35:30.640Z,14.37
2023-02-22T09:38:00.761Z,11.13
2023-02-22T09:40:33.241Z,9.97
2023-02-22T09:43:03.374Z,8.50
2023-02-22T09:45:32.913Z,9.20
2023-02-22T09:48:15.138Z,8.90
2023-02-22T09:50:36.225Z,5.90
2023-02-22T09:53:05.694Z,6.17
2023-02-22T09:55:35.612Z,5.63
2023-02-22T09:58:06.825Z,5.17
2023-02-22T10:00:38.026Z,4.43
2023-02-22T10:03:24.787Z,4.27
2023-02-22T10:05:54.963Z,3.87
2023-02-22T10:08:24.257Z,3.63
2023-02-22T10:10:53.839Z,3.67
2023-02-22T10:13:35.992Z,4.47
2023-02-22T10:16:06.294Z,3.63
2023-02-22T10:18:36.803Z,3.97
2023-02-22T10:21:13.876Z,2.97
2023-02-22T10:24:00.204Z,2.57
2023-02-22T10:26:30.274Z,3.57
2023-02-22T10:29:16.794Z,3.07
2023-02-22T10:31:47.042Z,2.70
2023-02-22T10:34:17.450Z,3.40
2023-02-22T10:36:47.394Z,3.30
2023-02-22T10:39:35.075Z,3.97
2023-02-22T10:42:06.572Z,3.87
2023-02-22T10:44:35.813Z,3.43
2023-02-22T10:47:06.437Z,4.13
2023-02-22T10:49:41.644Z,3.70
2023-02-22T10:52:20.233Z,4.10
2023-02-22T10:54:50.324Z,2.80
2023-02-22T10:57:29.915Z,2.80
2023-02-22T10:59:58.287Z,2.93
2023-02-22T11:02:28.536Z,3.50
2023-02-22T11:04:58.390Z,3.37
2023-02-22T11:07:34.060Z,3.50
2023-02-22T11:10:07.157Z,3.63
2023-02-22T11:12:38.830Z,3.27
2023-02-22T11:15:18.266Z,2.83
2023-02-22T11:17:47.263Z,3.40
2023-02-22T11:20:24.689Z,3.37
2023-02-22T11:22:57.142Z,3.27
2023-02-22T11:25:26.663Z,3.53
2023-02-22T11:27:56.003Z,3.40
2023-02-22T11:30:32.409Z,3.67
2023-02-22T11:33:02.507Z,3.10
2023-02-22T11:35:32.632Z,3.33
2023-02-22T11:38:17.925Z,2.60
2023-02-22T11:40:47.111Z,3.93
2023-02-22T11:43:17.740Z,3.17
2023-02-22T11:46:02.260Z,2.47
2023-02-22T11:48:32.708Z,2.27
2023-02-22T11:51:20.176Z,2.43
2023-02-22T11:53:50.919Z,2.60
2023-02-22T11:56:37.977Z,3.37
2023-02-22T11:59:14.892Z,2.80
2023-02-22T12:01:46.350Z,2.37
2023-02-22T12:04:24.328Z,3.00
2023-02-22T12:06:57.943Z,2.77
2023-02-22T12:09:37.595Z,2.50
2023-02-22T12:12:10.462Z,2.50
2023-02-22T12:14:40.037Z,3.33
2023-02-22T12:17:20.156Z,2.60
2023-02-22T12:19:50.918Z,3.00
2023-02-22T12:22:29.464Z,3.00
2023-02-22T12:25:09.912Z,2.87
2023-02-22T12:27:39.047Z,2.60
2023-02-22T12:30:15.392Z,2.53
2023-02-22T12:32:46.735Z,2.63
2023-02-22T12:35:25.644Z,2.97
2023-02-22T12:37:55.903Z,2.63
2023-02-22T12:40:40.406Z,2.50
2023-02-22T12:43:13.475Z,2.50
2023-02-22T12:45:47.027Z,2.37
2023-02-22T12:48:29.146Z,2.00
2023-02-22T12:50:58.658Z,2.83
2023-02-22T12:53:28.883Z,2.47
2023-02-22T12:55:58.358Z,2.23
2023-02-22T12:58:29.817Z,2.37
2023-02-22T13:01:14.427Z,2.07
2023-02-22T13:03:44.391Z,2.10
2023-02-22T13:06:30.095Z,2.40
2023-02-22T13:09:09.246Z,2.00
2023-02-22T13:11:46.192Z,2.27
2023-02-22T13:14:28.714Z,2.57
2023-02-22T13:16:58.935Z,2.30
2023-02-22T13:19:31.829Z,2.23
2023-02-22T13:22:01.931Z,2.53
2023-02-22T13:24:32.169Z,2.47
2023-02-22T13:27:01.644Z,2.87
2023-02-22T13:29:34.453Z,2.50
2023-02-22T13:32:04.505Z,2.33
2023-02-22T13:34:46.666Z,2.60
2023-02-22T13:37:19.036Z,2.30
2023-02-22T13:40:07.247Z,2.57
2023-02-22T13:42:37.539Z,3.00
2023-02-22T13:45:12.954Z,2.43
2023-02-22T13:47:45.784Z,2.20
2023-02-22T13:50:32.852Z,2.10
2023-02-22T13:53:02.367Z,2.30
2023-02-22T13:55:33.440Z,3.07
2023-02-22T13:58:06.500Z,2.80
2023-02-22T14:00:49.031Z,3.17
2023-02-22T14:03:19.225Z,2.53
2023-02-22T14:05:51.132Z,2.43
2023-02-22T14:08:22.386Z,2.47
2023-02-22T14:10:57.760Z,2.07
2023-02-22T14:13:27.314Z,2.03
2023-02-22T14:16:02.938Z,2.07
2023-02-22T14:18:32.477Z,2.17
2023-02-22T14:21:07.905Z,2.10
2023-02-22T14:23:42.924Z,2.10
2023-02-22T14:26:16.395Z,3.10
2023-02-22T14:28:47.054Z,2.70
2023-02-22T14:31:33.345Z,2.70
2023-02-22T14:33:54.242Z,2.83
2023-02-22T14:36:27.545Z,2.60
2023-02-22T14:38:57.391Z,2.87
2023-02-22T14:41:26.899Z,3.03
2023-02-22T14:43:56.738Z,2.30
2023-02-22T14:46:26.769Z,2.90
2023-02-22T14:48:59.350Z,2.63
2023-02-22T14:51:29.922Z,3.03
2023-02-22T14:54:00.147Z,2.70
2023-02-22T14:56:30.258Z,2.77
2023-02-22T14:59:19.101Z,2.40
2023-02-22T15:02:05.763Z,2.40
2023-02-22T15:04:20.573Z,2.57
2023-02-22T15:06:49.455Z,2.60
2023-02-22T15:09:28.507Z,3.10
2023-02-22T15:11:56.527Z,2.97
2023-02-22T15:14:26.942Z,3.10
2023-02-22T15:16:57.358Z,3.33
2023-02-22T15:19:27.755Z,3.43
2023-02-22T15:21:57.260Z,3.67
2023-02-22T15:24:29.425Z,3.00
2023-02-22T15:27:02.671Z,3.20
2023-02-22T15:29:31.330Z,3.90
2023-02-22T15:31:59.376Z,3.50
2023-02-22T15:34:31.754Z,4.43
2023-02-22T15:37:06.642Z,4.10
2023-02-22T15:39:34.948Z,4.17
2023-02-22T15:42:04.974Z,4.07
2023-02-22T15:44:38.059Z,4.53
2023-02-22T15:47:06.431Z,4.87
2023-02-22T15:49:36.930Z,5.57
2023-02-22T15:52:07.093Z,5.07
2023-02-22T15:54:40.038Z,5.63
2023-02-22T15:57:08.836Z,6.60
2023-02-22T15:59:39.994Z,5.70
2023-02-22T16:02:09.174Z,5.77
2023-02-22T16:07:07.548Z,5.67
2023-02-22T16:09:35.516Z,7.27
2023-02-22T16:12:12.562Z,6.80
2023-02-22T16:14:43.111Z,7.23
2023-02-22T16:17:13.448Z,8.60
2023-02-22T16:19:45.274Z,7.03
2023-02-22T16:22:36.273Z,6.93
2023-02-22T16:25:23.046Z,6.30
2023-02-22T16:28:06.360Z,6.87
2023-02-22T16:30:36.602Z,7.33
2023-02-22T16:33:16.844Z,7.07
2023-02-22T16:35:46.456Z,8.03
2023-02-22T16:38:17.034Z,6.90
2023-02-22T16:40:50.930Z,7.00
2023-02-22T16:43:21.056Z,7.03
2023-02-22T16:45:49.553Z,8.70
2023-02-22T16:48:22.115Z,7.17
2023-02-22T16:50:51.470Z,8.00
2023-02-22T16:53:20.469Z,7.50
2023-02-22T16:55:49.765Z,7.73
2023-02-22T17:05:40.782Z,7.05
2023-02-22T17:08:09.762Z,6.67
2023-02-22T17:10:38.533Z,6.73
2023-02-22T17:13:22.146Z,7.13
2023-02-22T17:15:38.176Z,8.00
2023-02-22T17:18:14.709Z,9.33
2023-02-22T17:20:44.118Z,9.10
2023-02-22T17:25:41.618Z,9.63
2023-02-22T17:28:10.914Z,10.30
2023-02-22T17:30:39.207Z,10.23
2023-02-22T17:33:09.148Z,11.20
2023-02-22T17:35:39.903Z,14.33
2023-02-22T17:38:09.210Z,16.20
2023-02-22T17:43:08.009Z,14.10
2023-02-22T17:45:38.675Z,11.23
2023-02-22T17:48:07.708Z,13.43
2023-02-22T17:50:40.783Z,12.33
2023-02-22T17:53:11.150Z,14.93
2023-02-22T17:55:40.673Z,15.47
2023-02-22T17:58:11.297Z,14.00
2023-02-22T18:00:40.457Z,13.00
2023-02-22T18:03:11.295Z,12.17
2023-02-22T18:05:41.619Z,12.67
2023-02-22T18:08:10.157Z,12.83
2023-02-22T18:10:39.233Z,12.63
2023-02-22T18:13:08.832Z,11.77
2023-02-22T18:15:37.831Z,12.20
2023-02-22T18:18:06.998Z,13.37
2023-02-22T18:20:42.974Z,14.43
2023-02-22T18:23:16.674Z,19.43
2023-02-22T18:26:09.094Z,16.53
2023-02-22T18:28:22.968Z,14.20
2023-02-22T18:30:53.369Z,12.67
2023-02-22T18:33:21.844Z,14.73
2023-02-22T18:35:52.953Z,13.80
2023-02-22T18:38:24.790Z,12.83
2023-02-22T18:41:07.442Z,13.37
2023-02-22T18:43:36.232Z,14.90
2023-02-22T18:46:12.585Z,13.57
2023-02-22T18:48:41.553Z,13.70
2023-02-22T18:51:11.892Z,13.73
2023-02-22T18:53:41.183Z,13.60
2023-02-22T18:56:11.170Z,13.70
2023-02-22T18:58:40.176Z,15.03
2023-02-22T19:01:09.361Z,15.67
2023-02-22T19:03:38.643Z,15.30
2023-02-22T19:06:09.879Z,14.60
2023-02-22T19:08:40.550Z,12.77
2023-02-22T19:11:11.953Z,14.33
2023-02-22T19:13:40.043Z,12.20
2023-02-22T19:16:08.845Z,11.87
2023-02-22T19:18:37.813Z,13.30
2023-02-22T19:21:10.300Z,11.50
2023-02-22T19:23:41.229Z,10.97
2023-02-22T19:26:10.102Z,11.47
2023-02-22T19:28:38.928Z,12.97
2023-02-22T19:31:15.153Z,13.10
2023-02-22T19:33:45.240Z,13.57
2023-02-22T19:36:15.872Z,14.20
2023-02-22T19:38:45.441Z,14.67
2023-02-22T19:41:18.396Z,15.77
2023-02-22T19:43:51.361Z,14.97
2023-02-22T19:46:22.078Z,15.37
2023-02-22T19:48:51.966Z,14.47
2023-02-22T19:51:22.370Z,15.87
2023-02-22T19:53:51.247Z,14.07
2023-02-22T19:56:21.768Z,14.57
2023-02-22T19:58:51.608Z,14.20
2023-02-22T20:01:22.985Z,12.97
2023-02-22T20:03:55.721Z,13.60
2023-02-22T20:06:28.171Z,16.03
2023-02-22T20:08:57.313Z,16.10
2023-02-22T20:11:25.813Z,15.70
2023-02-22T20:13:56.123Z,17.80
2023-02-22T20:16:25.031Z,16.80
2023-02-22T20:18:55.047Z,15.97
2023-02-22T20:21:25.176Z,15.53
2023-02-22T20:23:55.358Z,15.53
2023-02-22T20:26:24.630Z,16.73
2023-02-22T20:28:53.250Z,28.50
2023-02-22T20:31:22.378Z,33.47
2023-02-22T20:33:52.806Z,37.57
2023-02-22T20:36:23.604Z,28.97
2023-02-22T20:38:55.900Z,27.13
2023-02-22T20:41:29.080Z,27.50
2023-02-22T20:43:57.898Z,26.37
2023-02-22T20:46:28.001Z,26.23
2023-02-22T20:48:57.638Z,27.93
2023-02-22T20:51:27.203Z,28.60
2023-02-22T20:53:56.363Z,25.67
2023-02-22T20:56:25.593Z,23.83
2023-02-22T20:58:53.726Z,25.20
2023-02-22T21:01:22.708Z,31.73
2023-02-22T21:03:51.949Z,34.50
2023-02-22T21:06:21.734Z,36.30
2023-02-22T21:08:54.657Z,35.53
2023-02-22T21:11:23.611Z,31.73
2023-02-22T21:13:52.156Z,32.47
2023-02-22T21:16:23.644Z,39.77
2023-02-22T21:18:53.716Z,51.87
2023-02-22T21:21:22.755Z,30.60
2023-02-22T21:23:52.572Z,32.37
2023-02-22T21:26:23.901Z,33.73
2023-02-22T21:28:53.782Z,28.43
2023-02-22T21:31:24.603Z,29.13
2023-02-22T21:33:55.381Z,28.37
2023-02-22T21:36:26.162Z,27.43
2023-02-22T21:38:56.106Z,27.47
2023-02-22T21:41:28.019Z,28.83
2023-02-22T21:43:57.070Z,27.30
2023-02-22T21:46:26.813Z,50.50
2023-02-22T21:48:55.376Z,38.87
2023-02-22T21:51:25.716Z,31.40
2023-02-22T21:53:55.414Z,25.00
2023-02-22T21:59:11.447Z,26.73
2023-02-22T22:01:46.214Z,26.53
2023-02-22T22:04:17.030Z,28.73
2023-02-22T22:06:45.749Z,29.70
2023-02-22T22:09:20.214Z,27.50
2023-02-22T22:11:50.159Z,26.53
2023-02-22T22:14:20.336Z,26.33
2023-02-22T22:16:49.974Z,27.30
2023-02-22T22:19:18.667Z,30.77
2023-02-22T22:21:48.408Z,29.47
2023-02-22T22:24:16.877Z,31.83
2023-02-22T22:26:45.463Z,30.07
2023-02-22T22:29:14.498Z,29.77
2023-02-22T22:31:42.610Z,31.00
2023-02-22T22:34:11.749Z,32.87
2023-02-22T22:36:40.145Z,31.90
2023-02-22T22:39:10.746Z,31.80
2023-02-22T22:41:39.486Z,30.43
2023-02-22T22:44:09.714Z,29.20
2023-02-22T22:46:41.769Z,30.00
2023-02-22T22:49:11.459Z,30.30
2023-02-22T22:51:41.367Z,30.97
2023-02-22T22:54:10.697Z,30.53
2023-02-22T22:56:39.948Z,33.90
2023-02-22T22:59:10.151Z,35.17
2023-02-22T23:01:40.933Z,32.97
2023-02-22T23:04:10.848Z,38.57
2023-02-22T23:06:40.694Z,35.73
2023-02-22T23:09:13.584Z,36.57
2023-02-22T23:11:51.076Z,35.30
2023-02-22T23:14:21.171Z,36.70
2023-02-22T23:16:50.591Z,41.63
2023-02-22T23:19:19.743Z,43.33
2023-02-22T23:21:49.138Z,42.97
2023-02-22T23:24:19.385Z,42.57
2023-02-22T23:26:49.812Z,38.97
2023-02-22T23:29:18.846Z,40.07
2023-02-22T23:31:49.011Z,41.73
2023-02-22T23:34:18.283Z,42.10
2023-02-22T23:36:47.623Z,40.43
2023-02-22T23:39:16.660Z,39.07
2023-02-22T23:41:44.685Z,42.57
2023-02-22T23:44:14.722Z,47.47
2023-02-22T23:46:45.292Z,43.30
2023-02-22T23:49:15.438Z,39.40
2023-02-22T23:51:45.399Z,37.80
2023-02-22T23:54:15.476Z,38.27
2023-02-22T23:56:45.709Z,32.40
2023-02-22T23:59:15.103Z,33.50
